Time;durP1;ratioP1;P1;durP2;ratioP2;P2;SDS_P1;SDS_P2;PMS_P1;PMS_P2;Temp;Humidity;BMP_temperature;BMP_pressure;BME280_temperature;BME280_humidity;BME280_pressure;Samples;Min_cycle;Max_cycle;Signal;HPM_P1;HPM_P2
2022/05/12 00:02:05;;;;;;;2.28;0.90;;;21.20;53.90;;;;;;4935917;29;20524;-76
2022/05/12 00:04:33;;;;;;;0.70;0.70;;;21.10;54.00;;;;;;4919250;29;20106;-77
2022/05/12 00:06:59;;;;;;;1.08;0.82;;;21.10;54.00;;;;;;4936117;29;20050;-76
2022/05/12 00:09:25;;;;;;;1.20;0.77;;;21.00;53.90;;;;;;4919156;29;20493;-78
2022/05/12 00:11:51;;;;;;;0.68;0.68;;;21.00;54.00;;;;;;4934770;29;20224;-77
2022/05/12 00:14:18;;;;;;;0.98;0.80;;;20.90;54.00;;;;;;4951116;29;20534;-76
2022/05/12 00:16:44;;;;;;;1.48;0.98;;;20.90;54.00;;;;;;4919493;29;20028;-77
2022/05/12 00:19:10;;;;;;;1.00;0.80;;;20.90;54.10;;;;;;4934669;29;20051;-79
2022/05/12 00:21:36;;;;;;;1.15;1.05;;;20.80;54.00;;;;;;4935885;29;20642;-76
2022/05/12 00:24:03;;;;;;;1.00;0.77;;;20.70;54.00;;;;;;4936367;29;20123;-77
2022/05/12 00:26:35;;;;;;;2.20;0.90;;;20.70;54.10;;;;;;4935840;29;20056;-77
2022/05/12 00:29:05;;;;;;;1.48;0.98;;;20.70;54.20;;;;;;4934872;29;20043;-78
2022/05/12 00:31:33;;;;;;;1.38;0.80;;;20.60;54.20;;;;;;4951384;29;20471;-78
2022/05/12 00:34:04;;;;;;;1.92;0.82;;;20.60;54.20;;;;;;4934714;29;20087;-77
2022/05/12 00:36:34;;;;;;;1.17;0.80;;;20.50;54.20;;;;;;4950600;29;20039;-77
2022/05/12 00:39:00;;;;;;;1.17;0.70;;;20.40;54.20;;;;;;4934605;29;20111;-77
2022/05/12 00:41:29;;;;;;;2.08;0.90;;;20.40;54.20;;;;;;4935482;29;20111;-78
2022/05/12 00:44:02;;;;;;;1.65;0.90;;;20.40;54.30;;;;;;4934492;29;20028;-77
2022/05/12 00:46:32;;;;;;;1.10;0.80;;;20.30;54.30;;;;;;4936592;29;20031;-76
2022/05/12 00:49:22;;;;;;;0.70;0.63;;;20.30;54.40;;;;;;4936158;29;20035;-76
2022/05/12 00:52:08;;;;;;;1.08;0.80;;;20.20;54.40;;;;;;4935292;29;20056;-78
2022/05/12 00:54:49;;;;;;;2.67;1.02;;;20.20;54.40;;;;;;4918806;29;20032;-77
2022/05/12 00:57:22;;;;;;;1.38;0.77;;;20.10;54.50;;;;;;4936562;29;20040;-78
2022/05/12 00:59:48;;;;;;;1.48;0.75;;;20.10;54.50;;;;;;4934727;29;20035;-77
2022/05/12 01:02:17;;;;;;;1.48;0.90;;;20.00;54.40;;;;;;4923176;29;20043;-77
2022/05/12 01:04:45;;;;;;;1.80;0.80;;;20.00;54.50;;;;;;4954381;29;20032;-77
2022/05/12 01:07:11;;;;;;;1.38;0.90;;;19.90;54.50;;;;;;4922779;29;20024;-77
2022/05/12 01:09:37;;;;;;;0.70;0.70;;;19.90;54.60;;;;;;4922495;29;20031;-76
2022/05/12 01:12:03;;;;;;;2.22;1.00;;;19.80;54.50;;;;;;4938244;29;20066;-75
2022/05/12 01:14:29;;;;;;;1.73;1.00;;;19.80;54.60;;;;;;4938067;29;20063;-76
2022/05/12 01:17:00;;;;;;;0.98;0.75;;;19.80;54.60;;;;;;4922921;29;20035;-76
2022/05/12 01:19:33;;;;;;;1.35;1.00;;;19.80;54.70;;;;;;4939100;29;20040;-77
2022/05/12 01:21:59;;;;;;;1.70;0.80;;;19.70;54.70;;;;;;4953729;29;20032;-77
2022/05/12 01:24:42;;;;;;;1.17;0.80;;;19.60;54.60;;;;;;4922037;29;20031;-76
2022/05/12 01:27:22;;;;;;;1.58;1.10;;;19.60;54.70;;;;;;4953550;29;20035;-76
2022/05/12 01:29:53;;;;;;;1.92;0.88;;;19.50;54.70;;;;;;4939042;29;20036;-76
2022/05/12 01:32:22;;;;;;;1.50;0.85;;;19.50;54.80;;;;;;4938899;29;20171;-75
2022/05/12 01:34:49;;;;;;;1.25;0.93;;;19.50;54.80;;;;;;4922545;29;20028;-76
2022/05/12 01:37:15;;;;;;;0.80;0.80;;;19.40;54.80;;;;;;4937563;29;20032;-76
2022/05/12 01:39:41;;;;;;;2.42;1.00;;;19.40;54.90;;;;;;4922442;29;20039;-76
2022/05/12 01:42:08;;;;;;;1.02;0.85;;;19.30;54.80;;;;;;4938513;29;20392;-76
2022/05/12 01:44:35;;;;;;;0.95;0.80;;;19.30;54.90;;;;;;4937438;29;20468;-75
2022/05/12 01:47:01;;;;;;;2.00;0.88;;;19.30;54.90;;;;;;4937817;29;20090;-77
2022/05/12 01:49:27;;;;;;;1.15;0.90;;;19.20;54.90;;;;;;4921890;29;20076;-77
2022/05/12 01:51:55;;;;;;;1.17;0.90;;;19.20;55.00;;;;;;4953490;29;20504;-76
2022/05/12 01:54:21;;;;;;;1.50;0.98;;;19.20;55.00;;;;;;4921759;29;20464;-75
2022/05/12 01:56:47;;;;;;;2.55;1.10;;;19.10;55.00;;;;;;4938348;29;20023;-77
2022/05/12 01:59:13;;;;;;;2.05;1.00;;;19.10;55.00;;;;;;4921331;29;20042;-76
2022/05/12 02:01:39;;;;;;;2.63;1.00;;;19.00;55.00;;;;;;4905418;29;20039;-75
2022/05/12 02:04:05;;;;;;;0.75;0.75;;;19.00;55.10;;;;;;4921474;29;20400;-76
2022/05/12 02:06:32;;;;;;;1.63;0.80;;;19.00;55.10;;;;;;4921055;29;20408;-76
2022/05/12 02:08:58;;;;;;;2.13;1.00;;;19.00;55.20;;;;;;4937752;29;20031;-76
2022/05/12 02:11:24;;;;;;;1.23;0.90;;;18.90;55.10;;;;;;4920474;29;20040;-78
2022/05/12 02:13:50;;;;;;;1.75;0.93;;;18.90;55.20;;;;;;4936901;29;20106;-77
2022/05/12 02:16:17;;;;;;;2.55;1.10;;;18.80;55.20;;;;;;4937638;29;20052;-75
2022/05/12 02:18:43;;;;;;;1.40;1.00;;;18.80;55.30;;;;;;4936101;29;20052;-76
2022/05/12 02:21:09;;;;;;;2.35;1.00;;;18.80;55.30;;;;;;4952259;29;20064;-76
2022/05/12 02:23:35;;;;;;;1.60;0.98;;;18.70;55.30;;;;;;4921048;29;20377;-77
2022/05/12 02:26:01;;;;;;;2.67;1.10;;;18.70;55.40;;;;;;4937548;29;20028;-76
2022/05/12 02:28:26;;;;;;;1.38;0.82;;;18.60;55.30;;;;;;4937610;29;20524;-77
2022/05/12 02:30:52;;;;;;;2.20;1.08;;;18.60;55.40;;;;;;4952291;29;20078;-77
2022/05/12 02:33:18;;;;;;;1.70;1.00;;;18.60;55.40;;;;;;4920816;29;20086;-76
2022/05/12 02:35:44;;;;;;;2.25;1.10;;;18.50;55.50;;;;;;4936245;29;20513;-77
2022/05/12 02:38:10;;;;;;;1.30;1.00;;;18.50;55.50;;;;;;4920540;29;20075;-77
2022/05/12 02:40:37;;;;;;;1.83;1.02;;;18.50;55.60;;;;;;4936597;29;20118;-76
2022/05/12 02:43:22;;;;;;;1.83;1.00;;;18.50;55.60;;;;;;4920345;29;20059;-78
2022/05/12 02:45:53;;;;;;;1.00;0.90;;;18.40;55.60;;;;;;4937176;29;20078;-76
2022/05/12 02:48:21;;;;;;;2.42;1.20;;;18.40;55.60;;;;;;4936748;29;20031;-75
2022/05/12 02:50:47;;;;;;;1.23;0.98;;;18.30;55.70;;;;;;4936091;29;20035;-75
2022/05/12 02:53:13;;;;;;;1.58;0.90;;;18.30;55.70;;;;;;4936928;29;20031;-76
2022/05/12 02:55:39;;;;;;;1.70;0.85;;;18.30;55.70;;;;;;4935855;29;20107;-75
2022/05/12 02:58:05;;;;;;;1.27;1.10;;;18.20;55.80;;;;;;4937240;29;20038;-79
2022/05/12 03:00:31;;;;;;;2.25;1.13;;;18.20;55.80;;;;;;4920137;29;20459;-75
2022/05/12 03:02:57;;;;;;;1.20;1.10;;;18.20;55.90;;;;;;4920250;29;20043;-78
2022/05/12 03:05:23;;;;;;;2.45;1.20;;;18.20;55.90;;;;;;4920113;29;20114;-75
2022/05/12 03:07:49;;;;;;;1.58;1.05;;;18.10;55.90;;;;;;4935762;29;20469;-76
2022/05/12 03:10:15;;;;;;;1.67;1.10;;;18.10;56.00;;;;;;4935826;29;20385;-76
2022/05/12 03:12:41;;;;;;;1.75;1.10;;;18.00;56.00;;;;;;4951856;29;20477;-75
2022/05/12 03:15:09;;;;;;;2.60;1.30;;;18.00;56.00;;;;;;4919992;29;20032;-76
2022/05/12 03:17:35;;;;;;;1.67;1.42;;;18.00;56.10;;;;;;4951410;29;20353;-76
2022/05/12 03:20:03;;;;;;;2.15;1.10;;;17.90;56.00;;;;;;4919798;29;20108;-76
2022/05/12 03:22:28;;;;;;;2.25;1.23;;;17.90;56.10;;;;;;4920123;29;20042;-75
2022/05/12 03:24:55;;;;;;;1.45;1.05;;;17.90;56.10;;;;;;4918742;29;20043;-76
2022/05/12 03:27:21;;;;;;;1.58;1.13;;;17.90;56.20;;;;;;4919918;29;20058;-77
2022/05/12 03:29:47;;;;;;;2.20;1.27;;;17.80;56.20;;;;;;4935658;29;20059;-75
2022/05/12 03:32:13;;;;;;;1.30;1.20;;;17.80;56.30;;;;;;4903765;29;20491;-75
2022/05/12 03:34:40;;;;;;;2.95;1.40;;;17.80;56.30;;;;;;4934922;29;20497;-75
2022/05/12 03:37:09;;;;;;;2.22;1.20;;;17.80;56.30;;;;;;4934867;29;20023;-75
2022/05/12 03:39:37;;;;;;;1.90;1.40;;;17.70;56.30;;;;;;4919605;29;20130;-76
2022/05/12 03:42:06;;;;;;;1.95;1.35;;;17.70;56.40;;;;;;4934927;29;20031;-75
2022/05/12 03:44:47;;;;;;;1.58;1.40;;;17.60;57.10;;;;;;4937130;29;20039;-75
2022/05/12 03:47:24;;;;;;;1.30;1.20;;;17.60;56.40;;;;;;4951371;29;20454;-76
2022/05/12 03:49:53;;;;;;;2.15;1.30;;;17.60;56.50;;;;;;4936373;29;20035;-76
2022/05/12 03:52:20;;;;;;;1.40;1.30;;;17.60;56.50;;;;;;4919367;29;20036;-75
2022/05/12 03:54:47;;;;;;;1.95;1.30;;;17.50;56.60;;;;;;4919155;29;20066;-75
2022/05/12 03:57:14;;;;;;;3.30;1.77;;;17.50;56.60;;;;;;4919245;29;20499;-75
2022/05/12 03:59:41;;;;;;;1.80;1.48;;;17.50;56.70;;;;;;4934834;29;20035;-76
2022/05/12 04:02:10;;;;;;;1.83;1.50;;;17.40;56.60;;;;;;4935059;29;20122;-76
2022/05/12 04:04:36;;;;;;;1.40;1.30;;;17.40;56.70;;;;;;4935727;29;20499;-75
2022/05/12 04:07:03;;;;;;;1.70;1.60;;;17.40;56.70;;;;;;4919081;29;20488;-78
2022/05/12 04:09:29;;;;;;;1.60;1.40;;;17.40;56.80;;;;;;4934381;29;20031;-76
2022/05/12 04:11:55;;;;;;;1.60;1.50;;;17.30;56.70;;;;;;4919560;29;20023;-75
2022/05/12 04:14:21;;;;;;;1.83;1.40;;;17.30;56.80;;;;;;4934713;29;20038;-76
2022/05/12 04:16:47;;;;;;;2.38;1.70;;;17.30;56.80;;;;;;4934478;29;20031;-77
2022/05/12 04:19:13;;;;;;;2.30;1.70;;;17.20;56.80;;;;;;4935675;29;20102;-77
2022/05/12 04:21:40;;;;;;;2.17;1.73;;;17.20;56.90;;;;;;4936339;29;20369;-76
2022/05/12 04:24:07;;;;;;;2.15;1.58;;;17.20;57.00;;;;;;4935715;29;20028;-76
2022/05/12 04:26:35;;;;;;;2.72;1.45;;;17.20;57.00;;;;;;4918603;29;20023;-76
2022/05/12 04:29:02;;;;;;;2.55;1.70;;;17.10;57.00;;;;;;4934909;29;20090;-76
2022/05/12 04:31:28;;;;;;;2.35;1.50;;;17.10;57.00;;;;;;4934446;29;20444;-76
2022/05/12 04:36:38;;;;;;;1.45;1.35;;;17.10;57.10;;;;;;4938130;29;20048;-76
2022/05/12 04:39:06;;;;;;;2.53;1.40;;;17.00;57.10;;;;;;4922959;29;20043;-76
2022/05/12 04:41:32;;;;;;;1.75;1.40;;;17.00;57.10;;;;;;4954591;29;20227;-76
2022/05/12 04:43:58;;;;;;;1.95;1.50;;;17.00;57.20;;;;;;4922662;29;20091;-76
2022/05/12 04:46:26;;;;;;;2.67;1.70;;;17.00;57.20;;;;;;4939468;29;20503;-79
2022/05/12 04:48:52;;;;;;;1.92;1.40;;;17.00;57.30;;;;;;4938055;29;20042;-76
2022/05/12 04:51:19;;;;;;;2.13;1.15;;;17.00;57.30;;;;;;4922272;29;20603;-76
2022/05/12 04:53:45;;;;;;;1.73;1.40;;;16.90;57.30;;;;;;4938108;29;20074;-76
2022/05/12 04:56:11;;;;;;;1.88;1.50;;;16.90;57.30;;;;;;4954283;29;20130;-76
2022/05/12 04:58:37;;;;;;;2.53;1.70;;;16.90;57.40;;;;;;4922431;29;20427;-76
2022/05/12 05:01:04;;;;;;;2.22;1.50;;;16.90;57.40;;;;;;4938336;29;20400;-76
2022/05/12 05:03:30;;;;;;;1.80;1.30;;;16.80;57.40;;;;;;4922840;29;20027;-76
2022/05/12 05:05:56;;;;;;;2.70;1.50;;;16.80;57.50;;;;;;4922402;29;20035;-76
2022/05/12 05:08:23;;;;;;;1.65;1.40;;;16.80;57.50;;;;;;4938327;29;20110;-75
2022/05/12 05:10:50;;;;;;;2.33;1.52;;;16.80;57.50;;;;;;4937703;29;20481;-76
2022/05/12 05:13:18;;;;;;;1.73;1.60;;;16.80;57.60;;;;;;4938733;29;20044;-76
2022/05/12 05:15:45;;;;;;;2.47;1.65;;;16.80;57.60;;;;;;4939035;29;20032;-76
2022/05/12 05:18:14;;;;;;;2.20;1.50;;;16.80;57.60;;;;;;4937511;29;20048;-76
2022/05/12 05:20:42;;;;;;;2.83;1.40;;;16.70;57.60;;;;;;4937713;29;20046;-76
2022/05/12 05:23:08;;;;;;;1.70;1.30;;;16.80;57.70;;;;;;4937617;29;20440;-76
2022/05/12 05:25:34;;;;;;;2.80;1.50;;;16.70;57.70;;;;;;4953868;29;20031;-77
2022/05/12 05:27:59;;;;;;;2.28;1.60;;;16.70;57.70;;;;;;4938651;29;20503;-77
2022/05/12 05:30:26;;;;;;;2.67;1.63;;;16.70;57.70;;;;;;4938445;29;20032;-76
2022/05/12 05:32:53;;;;;;;1.75;1.45;;;16.70;57.80;;;;;;4939152;29;20063;-76
2022/05/12 05:35:20;;;;;;;1.40;1.30;;;16.70;57.80;;;;;;4921654;29;20446;-76
2022/05/12 05:37:46;;;;;;;2.28;1.58;;;16.70;57.80;;;;;;4938818;29;20129;-76
2022/05/12 05:40:14;;;;;;;2.15;1.40;;;16.60;57.80;;;;;;4938640;29;20119;-76
2022/05/12 05:42:44;;;;;;;1.63;1.40;;;16.60;57.80;;;;;;4938174;29;20484;-76
2022/05/12 05:45:12;;;;;;;1.63;1.35;;;16.60;57.80;;;;;;4921536;29;20384;-78
2022/05/12 05:47:45;;;;;;;2.15;1.70;;;16.60;57.90;;;;;;4920728;29;20119;-77
2022/05/12 05:50:15;;;;;;;1.95;1.50;;;16.60;58.00;;;;;;4937133;29;20175;-77
2022/05/12 05:55:26;;;;;;;1.48;1.38;;;16.60;58.00;;;;;;4924291;29;20398;-76
2022/05/12 05:57:51;;;;;;;2.25;1.50;;;16.60;58.00;;;;;;4937216;29;20035;-77
2022/05/12 06:00:19;;;;;;;1.77;1.38;;;16.60;58.00;;;;;;4921064;29;20052;-77
2022/05/12 06:02:46;;;;;;;1.60;1.48;;;16.50;58.00;;;;;;4921294;29;20023;-76
2022/05/12 06:05:12;;;;;;;1.88;1.55;;;16.60;58.10;;;;;;4921750;29;20059;-77
2022/05/12 06:07:38;;;;;;;1.83;1.45;;;16.60;58.10;;;;;;4922049;29;20397;-76
2022/05/12 06:10:06;;;;;;;1.73;1.33;;;16.60;58.10;;;;;;4937853;29;20038;-77
2022/05/12 06:12:33;;;;;;;2.53;1.60;;;16.50;58.10;;;;;;4938261;29;20583;-77
2022/05/12 06:14:59;;;;;;;2.97;1.55;;;16.60;58.20;;;;;;4921209;29;20038;-77
2022/05/12 06:17:26;;;;;;;2.70;1.52;;;16.60;58.20;;;;;;4905134;29;20028;-76
2022/05/12 06:19:52;;;;;;;2.17;1.60;;;16.60;58.20;;;;;;4937588;29;20039;-78
2022/05/12 06:22:19;;;;;;;2.92;1.90;;;16.60;58.80;;;;;;4952742;29;20079;-76
2022/05/12 06:24:47;;;;;;;2.70;1.60;;;16.60;58.20;;;;;;4938093;29;20063;-77
2022/05/12 06:27:14;;;;;;;2.58;1.55;;;16.50;58.20;;;;;;4937009;29;20118;-77
2022/05/12 06:29:44;;;;;;;2.35;1.52;;;16.60;58.30;;;;;;4921172;29;20485;-78
2022/05/12 06:32:10;;;;;;;2.92;1.42;;;16.60;58.20;;;;;;4937137;29;20112;-77
2022/05/12 06:34:36;;;;;;;2.00;1.70;;;16.60;58.30;;;;;;4936588;29;20015;-77
2022/05/12 06:37:04;;;;;;;1.60;1.50;;;16.60;58.30;;;;;;4920356;29;20451;-78
2022/05/12 06:39:30;;;;;;;2.00;1.55;;;16.60;58.30;;;;;;4905270;29;20036;-77
2022/05/12 06:41:57;;;;;;;2.75;2.00;;;16.60;58.30;;;;;;4936332;29;20043;-77
2022/05/12 06:44:42;;;;;;;3.35;2.00;;;16.60;58.30;;;;;;4923243;29;20380;-77
2022/05/12 06:47:09;;;;;;;2.35;1.60;;;16.60;58.30;;;;;;4920695;29;20062;-77
2022/05/12 06:49:36;;;;;;;2.10;1.40;;;16.60;58.30;;;;;;4937976;29;20475;-77
2022/05/12 06:52:06;;;;;;;2.13;1.60;;;16.60;58.30;;;;;;4920637;29;20035;-77
2022/05/12 06:54:37;;;;;;;2.88;1.60;;;16.60;58.40;;;;;;4936881;29;20425;-78
2022/05/12 06:57:04;;;;;;;2.15;1.58;;;16.60;58.40;;;;;;4936650;29;20056;-77
2022/05/12 06:59:30;;;;;;;2.42;1.85;;;16.60;58.30;;;;;;4920496;29;20118;-77
2022/05/12 07:01:55;;;;;;;1.80;1.42;;;16.60;58.30;;;;;;4920346;29;20070;-77
2022/05/12 07:04:24;;;;;;;3.15;1.88;;;16.60;58.40;;;;;;4935596;29;20388;-77
2022/05/12 07:06:50;;;;;;;2.25;1.60;;;16.60;58.30;;;;;;4920489;29;20028;-77
2022/05/12 07:09:18;;;;;;;2.58;1.55;;;16.60;58.30;;;;;;4920329;29;20036;-77
2022/05/12 07:11:45;;;;;;;4.43;1.95;;;16.70;58.40;;;;;;4952478;29;20036;-77
2022/05/12 07:14:12;;;;;;;2.42;1.58;;;16.70;58.50;;;;;;4920117;29;20035;-76
2022/05/12 07:16:38;;;;;;;3.10;1.77;;;16.70;58.40;;;;;;4937488;29;20160;-76
2022/05/12 07:19:03;;;;;;;2.53;1.63;;;16.70;58.40;;;;;;4920319;29;20165;-76
2022/05/12 07:26:57;;;;;;;2.50;1.55;;;16.70;58.40;;;;;;4922919;29;20047;-76
2022/05/12 07:29:27;;;;;;;2.50;1.75;;;16.70;58.40;;;;;;4919738;29;20083;-77
2022/05/12 07:31:54;;;;;;;1.88;1.52;;;16.70;58.40;;;;;;4951106;29;20039;-76
2022/05/12 07:34:21;;;;;;;2.08;1.70;;;16.70;58.40;;;;;;4920125;29;20138;-76
2022/05/12 07:36:52;;;;;;;1.70;1.40;;;16.80;58.40;;;;;;4934982;29;20031;-77
2022/05/12 07:39:22;;;;;;;1.88;1.60;;;16.80;58.50;;;;;;4936444;29;20043;-76
2022/05/12 07:41:48;;;;;;;1.25;1.15;;;16.80;58.40;;;;;;4951557;29;20024;-76
2022/05/12 07:44:19;;;;;;;1.90;1.40;;;16.80;58.40;;;;;;4935341;29;20054;-75
2022/05/12 07:46:45;;;;;;;2.42;1.83;;;16.80;58.40;;;;;;4951436;29;20046;-75
2022/05/12 07:49:12;;;;;;;2.58;1.60;;;16.80;58.40;;;;;;4935189;29;20071;-76
2022/05/12 07:51:38;;;;;;;2.40;1.55;;;16.90;58.50;;;;;;4919732;29;20114;-77
2022/05/12 07:54:04;;;;;;;2.25;1.70;;;17.00;58.50;;;;;;4919695;29;20055;-75
2022/05/12 07:56:30;;;;;;;2.30;1.60;;;16.90;58.50;;;;;;4919476;29;20102;-74
2022/05/12 07:58:57;;;;;;;4.18;1.80;;;17.00;58.50;;;;;;4919434;29;20071;-75
2022/05/12 08:01:24;;;;;;;2.08;1.52;;;17.00;59.00;;;;;;4934978;29;20035;-78
2022/05/12 08:03:51;;;;;;;2.80;1.55;;;17.10;58.40;;;;;;4934628;29;20055;-77
2022/05/12 08:06:18;;;;;;;2.38;1.45;;;17.10;58.30;;;;;;4934803;29;20039;-75
2022/05/12 08:08:45;;;;;;;2.10;1.65;;;17.10;58.30;;;;;;4919301;29;20027;-75
2022/05/12 08:11:12;;;;;;;2.17;1.65;;;17.20;58.40;;;;;;4934482;29;20354;-75
2022/05/12 08:13:40;;;;;;;2.53;1.40;;;17.30;58.30;;;;;;4918983;29;20075;-77
2022/05/12 08:16:06;;;;;;;3.10;1.50;;;17.30;58.30;;;;;;4934880;29;20083;-76
2022/05/12 08:18:33;;;;;;;1.98;1.60;;;17.40;58.20;;;;;;4934362;29;20051;-76
2022/05/12 08:20:59;;;;;;;2.20;1.58;;;17.40;58.20;;;;;;4936057;29;20492;-75
2022/05/12 08:23:25;;;;;;;2.15;1.60;;;17.50;58.10;;;;;;4935962;29;20173;-77
2022/05/12 08:25:51;;;;;;;2.00;1.58;;;17.60;58.10;;;;;;4918695;29;20126;-76
2022/05/12 08:28:20;;;;;;;2.88;1.73;;;17.60;58.00;;;;;;4918942;29;20039;-76
2022/05/12 08:30:49;;;;;;;2.47;1.50;;;17.70;58.70;;;;;;4934796;29;20028;-76
2022/05/12 08:33:16;;;;;;;2.72;1.40;;;17.80;58.10;;;;;;4936021;29;20031;-76
2022/05/12 08:35:42;;;;;;;2.03;1.45;;;17.80;57.90;;;;;;4919029;29;20040;-76
2022/05/12 08:38:09;;;;;;;1.95;1.67;;;17.90;57.90;;;;;;4918515;29;20031;-76
2022/05/12 08:40:59;;;;;;;2.28;1.63;;;18.00;57.80;;;;;;4918829;29;20128;-76
2022/05/12 08:43:36;;;;;;;1.65;1.38;;;18.10;57.90;;;;;;4935686;29;20039;-76
2022/05/12 08:46:09;;;;;;;2.33;1.27;;;18.20;57.80;;;;;;4950689;29;20500;-76
2022/05/12 08:48:40;;;;;;;1.42;1.27;;;18.20;57.70;;;;;;4935905;29;20049;-76
2022/05/12 08:51:07;;;;;;;1.75;1.30;;;18.30;57.70;;;;;;4950596;29;20028;-76
2022/05/12 08:53:43;;;;;;;2.58;1.48;;;18.40;57.70;;;;;;4934771;29;20028;-75
2022/05/12 08:56:09;;;;;;;2.13;1.58;;;18.40;57.70;;;;;;4935163;29;20028;-75
2022/05/12 08:58:39;;;;;;;2.67;1.50;;;18.50;57.50;;;;;;4919156;29;20047;-76
2022/05/12 09:01:38;;;;;;;2.38;1.60;;;18.60;57.50;;;;;;4950222;29;20047;-76
2022/05/12 09:04:13;;;;;;;2.05;1.38;;;18.70;57.50;;;;;;4918544;29;20036;-75
2022/05/12 09:06:39;;;;;;;;;;;18.80;57.30;;;;;;4935490;29;20036;-75
2022/05/12 09:09:14;;;;;;;2.15;1.40;;;18.90;57.20;;;;;;4950285;29;20275;-75
2022/05/12 09:11:54;;;;;;;1.60;1.25;;;18.90;57.10;;;;;;4934872;29;20381;-76
2022/05/12 09:14:39;;;;;;;1.40;1.13;;;19.00;57.20;;;;;;4934184;29;20503;-78
2022/05/12 09:17:06;;;;;;;2.10;1.40;;;19.10;57.10;;;;;;4935485;29;20087;-76
2022/05/12 09:19:31;;;;;;;1.83;1.30;;;19.20;56.90;;;;;;4918243;29;20484;-78
2022/05/12 09:21:57;;;;;;;2.70;1.42;;;19.20;56.80;;;;;;4952224;28;20043;-77
2022/05/12 09:24:23;;;;;;;1.83;1.20;;;19.30;56.80;;;;;;4921926;29;20039;-79
2022/05/12 09:27:11;;;;;;;2.17;1.50;;;19.40;56.80;;;;;;4937798;29;20040;-77
2022/05/12 09:29:46;;;;;;;1.65;1.20;;;19.40;56.80;;;;;;4921345;29;20042;-78
2022/05/12 09:32:12;;;;;;;2.45;1.30;;;19.60;56.70;;;;;;4938511;29;20042;-77
2022/05/12 09:34:44;;;;;;;1.90;1.40;;;19.70;56.60;;;;;;4921645;29;20035;-76
2022/05/12 09:37:18;;;;;;;1.52;1.23;;;19.70;56.50;;;;;;4939135;29;20032;-77
2022/05/12 09:39:50;;;;;;;1.40;1.30;;;19.80;56.50;;;;;;4938368;29;20491;-77
2022/05/12 09:42:28;;;;;;;1.98;1.52;;;19.90;56.50;;;;;;4937752;29;20143;-78
2022/05/12 09:45:20;;;;;;;1.88;1.25;;;20.00;56.50;;;;;;4922485;29;20118;-75
2022/05/12 09:47:46;;;;;;;1.73;1.10;;;20.00;56.30;;;;;;4913754;29;20134;-76
2022/05/12 09:50:22;;;;;;;1.27;1.15;;;20.20;56.30;;;;;;4937556;29;20469;-75
2022/05/12 09:52:55;;;;;;;1.50;1.20;;;20.20;56.30;;;;;;4937258;29;20042;-77
2022/05/12 09:55:30;;;;;;;1.70;1.15;;;20.30;56.20;;;;;;4937319;29;20087;-76
2022/05/12 09:58:15;;;;;;;2.03;1.10;;;20.40;56.20;;;;;;4953160;29;20035;-76
2022/05/12 10:01:12;;;;;;;1.65;1.20;;;20.50;56.10;;;;;;4921181;29;20067;-76
2022/05/12 10:09:23;;;;;;;1.00;1.00;;;20.80;56.00;;;;;;4938811;29;20039;-77
2022/05/12 10:12:07;;;;;;;1.60;0.93;;;20.80;55.90;;;;;;4953008;29;20122;-76
2022/05/12 10:14:48;;;;;;;2.15;1.10;;;20.90;56.00;;;;;;4937924;29;20031;-78
2022/05/12 10:17:24;;;;;;;2.25;1.30;;;21.00;56.00;;;;;;4937449;29;20465;-76
2022/05/12 10:19:50;;;;;;;1.00;0.90;;;21.10;55.90;;;;;;4937750;29;20059;-76
2022/05/12 10:22:38;;;;;;;1.40;1.08;;;21.20;55.80;;;;;;4921292;29;20048;-77
2022/05/12 10:25:16;;;;;;;1.05;0.95;;;21.30;55.80;;;;;;4911160;29;20067;-75
2022/05/12 10:28:23;;;;;;;1.45;1.10;;;21.40;55.70;;;;;;4952990;29;20411;-76
2022/05/12 10:31:13;;;;;;;1.08;0.93;;;21.40;55.60;;;;;;4936988;29;20031;-77
2022/05/12 10:34:23;;;;;;;1.92;1.20;;;21.50;55.40;;;;;;4936046;29;20028;-76
2022/05/12 10:37:14;;;;;;;1.10;1.00;;;21.60;55.50;;;;;;4923415;29;20043;-77
2022/05/12 10:40:13;;;;;;;2.08;0.98;;;21.70;55.30;;;;;;4937670;29;20118;-76
2022/05/12 10:42:40;;;;;;;1.20;1.10;;;21.80;55.30;;;;;;4937568;29;20028;-77
2022/05/12 10:46:03;;;;;;;1.50;1.00;;;21.90;55.20;;;;;;4937763;29;20031;-77
2022/05/12 10:48:55;;;;;;;1.58;1.10;;;22.00;55.30;;;;;;4866127;29;20036;-77
2022/05/12 10:51:29;;;;;;;1.40;0.88;;;22.10;55.10;;;;;;4882126;29;20031;-77
2022/05/12 10:54:37;;;;;;;1.08;0.98;;;22.20;55.00;;;;;;4925480;29;20176;-79
2022/05/12 10:57:33;;;;;;;0.98;0.85;;;22.20;54.90;;;;;;4912685;29;20087;-77
2022/05/12 11:00:26;;;;;;;1.02;0.90;;;22.40;54.80;;;;;;4935600;29;20461;-74
2022/05/12 11:02:56;;;;;;;1.23;0.90;;;22.40;54.70;;;;;;4936696;29;20035;-77
2022/05/12 11:05:27;;;;;;;1.02;0.93;;;22.50;54.60;;;;;;4920046;29;20036;-76
2022/05/12 11:08:12;;;;;;;1.27;0.98;;;22.60;54.50;;;;;;4935422;29;20067;-77
2022/05/12 11:11:18;;;;;;;0.93;0.80;;;22.60;54.40;;;;;;4935564;29;20103;-78
2022/05/12 11:13:49;;;;;;;1.05;0.80;;;22.70;54.40;;;;;;4880853;29;20481;-77
2022/05/12 11:16:30;;;;;;;0.85;0.85;;;22.80;54.20;;;;;;4911940;29;20039;-76
2022/05/12 11:19:19;;;;;;;1.27;0.93;;;22.80;54.20;;;;;;4935602;29;20133;-77
2022/05/12 11:22:20;;;;;;;1.30;0.70;;;22.90;54.20;;;;;;4935102;29;20043;-74
2022/05/12 11:24:56;;;;;;;1.20;0.75;;;22.90;54.10;;;;;;4936685;29;20110;-76
2022/05/12 11:27:44;;;;;;;2.05;1.10;;;23.00;54.00;;;;;;4936043;29;20032;-75
2022/05/12 11:30:36;;;;;;;0.82;0.70;;;23.00;54.00;;;;;;4935397;29;20031;-75
2022/05/12 11:33:18;;;;;;;2.22;0.95;;;23.10;54.10;;;;;;4951189;29;20027;-75
2022/05/12 11:35:48;;;;;;;0.68;0.68;;;23.20;54.00;;;;;;4936847;29;20119;-78
2022/05/12 11:38:37;;;;;;;1.25;0.95;;;23.20;54.00;;;;;;4919079;29;20063;-73
2022/05/12 11:41:05;;;;;;;1.05;0.73;;;23.20;54.00;;;;;;4934638;29;20031;-77
2022/05/12 11:46:48;;;;;;;0.70;0.70;;;23.30;54.00;;;;;;4935956;29;20027;-77
2022/05/12 11:49:40;;;;;;;0.70;0.70;;;23.30;54.00;;;;;;4936897;29;20039;-76
2022/05/12 11:52:23;;;;;;;1.35;0.82;;;23.30;54.10;;;;;;4935224;29;20032;-76
2022/05/12 11:55:04;;;;;;;1.35;0.90;;;23.30;54.00;;;;;;4919393;29;20028;-76
2022/05/12 11:57:43;;;;;;;0.90;0.70;;;23.40;54.10;;;;;;4935228;29;20090;-77
2022/05/12 12:00:31;;;;;;;1.70;0.80;;;23.40;54.10;;;;;;4951465;29;20532;-75
2022/05/12 12:02:57;;;;;;;1.42;0.85;;;23.40;54.10;;;;;;4934480;29;20075;-76
2022/05/12 12:05:26;;;;;;;0.70;0.70;;;23.40;54.10;;;;;;4934993;29;20424;-76
2022/05/12 12:07:53;;;;;;;1.30;0.70;;;23.50;54.10;;;;;;4935234;29;20114;-76
2022/05/12 12:10:25;;;;;;;1.42;0.80;;;23.50;54.10;;;;;;4934693;29;20036;-76
2022/05/12 12:13:06;;;;;;;1.48;0.85;;;23.50;54.10;;;;;;4935857;29;20039;-77
2022/05/12 12:15:34;;;;;;;0.75;0.70;;;23.50;54.20;;;;;;4950886;29;20153;-76
2022/05/12 12:18:25;;;;;;;1.00;0.70;;;23.60;54.10;;;;;;4934554;29;20507;-76
2022/05/12 12:21:00;;;;;;;1.65;0.90;;;23.60;54.20;;;;;;4950302;29;20039;-76
2022/05/12 12:23:30;;;;;;;1.33;0.77;;;23.60;54.20;;;;;;4951241;29;20027;-76
2022/05/12 12:25:58;;;;;;;0.68;0.68;;;23.60;54.10;;;;;;4935631;29;20544;-75
2022/05/12 12:28:43;;;;;;;2.05;0.77;;;23.60;54.10;;;;;;4934772;29;20031;-75
2022/05/12 12:31:21;;;;;;;;;;;23.70;54.20;;;;;;4936892;29;20110;-75
2022/05/12 12:34:11;;;;;;;0.70;0.70;;;23.70;54.10;;;;;;4934803;29;20253;-76
2022/05/12 12:36:36;;;;;;;0.80;0.70;;;23.70;54.10;;;;;;4950507;29;20074;-75
2022/05/12 12:39:06;;;;;;;1.38;0.90;;;23.70;54.10;;;;;;4935107;29;20043;-75
2022/05/12 12:41:41;;;;;;;1.38;0.70;;;23.70;54.10;;;;;;4934872;29;20068;-75
2022/05/12 12:44:15;;;;;;;1.42;0.70;;;23.70;54.20;;;;;;4934219;29;20036;-75
2022/05/12 12:47:12;;;;;;;0.75;0.65;;;23.70;54.10;;;;;;4935651;29;20019;-75
2022/05/12 12:49:49;;;;;;;0.60;0.60;;;23.70;54.10;;;;;;4934209;29;20499;-75
2022/05/12 12:52:16;;;;;;;0.65;0.65;;;23.80;54.10;;;;;;4934536;29;20463;-76
2022/05/12 12:57:43;;;;;;;0.73;0.57;;;23.80;54.00;;;;;;4938320;29;20090;-75
2022/05/12 13:00:14;;;;;;;1.13;0.73;;;23.80;53.90;;;;;;4939375;29;20575;-74
2022/05/12 13:02:43;;;;;;;0.70;0.70;;;23.90;53.90;;;;;;4937974;29;20110;-75
2022/05/12 13:05:14;;;;;;;1.48;0.98;;;23.80;53.70;;;;;;4938873;29;20078;-74
2022/05/12 13:07:41;;;;;;;1.15;0.80;;;23.90;53.70;;;;;;4938567;29;20508;-74
2022/05/12 13:10:16;;;;;;;1.00;1.00;;;23.90;53.70;;;;;;4938295;29;20475;-74
2022/05/12 13:12:53;;;;;;;0.93;0.77;;;23.90;53.60;;;;;;4954114;29;20035;-74
2022/05/12 13:15:20;;;;;;;1.75;0.90;;;23.90;53.70;;;;;;4937951;29;20031;-76
2022/05/12 13:17:51;;;;;;;0.88;0.80;;;23.90;53.70;;;;;;4938676;29;20408;-73
2022/05/12 13:20:20;;;;;;;1.80;0.90;;;24.00;53.70;;;;;;4939723;29;20075;-76
2022/05/12 13:22:53;;;;;;;2.35;0.95;;;24.00;53.70;;;;;;4954140;29;20118;-75
2022/05/12 13:25:29;;;;;;;0.85;0.73;;;24.00;53.60;;;;;;4937779;29;20067;-75
2022/05/12 13:27:55;;;;;;;1.13;0.90;;;24.00;53.60;;;;;;4939628;29;20044;-76
2022/05/12 13:30:28;;;;;;;0.80;0.80;;;24.00;53.60;;;;;;4938912;29;20056;-76
2022/05/12 13:33:02;;;;;;;1.40;0.90;;;24.00;53.50;;;;;;4938065;29;20076;-77